createdAt,value
2022-07-27T00:00:33.849Z,14.20
2022-07-27T00:03:09.599Z,13.50
2022-07-27T00:05:42.662Z,14.60
2022-07-27T00:08:15.362Z,14.20
2022-07-27T00:10:48.638Z,14.10
2022-07-27T00:13:21.615Z,12.70
2022-07-27T00:15:55.170Z,13.90
2022-07-27T00:18:28.175Z,12.50
2022-07-27T00:21:00.933Z,11.90
2022-07-27T00:23:34.280Z,11.90
2022-07-27T00:26:07.089Z,13.00
2022-07-27T00:28:39.596Z,12.30
2022-07-27T00:31:12.533Z,13.00
2022-07-27T00:33:45.160Z,13.60
2022-07-27T00:36:17.866Z,13.50
2022-07-27T00:38:50.250Z,13.20
2022-07-27T00:41:22.911Z,13.80
2022-07-27T00:43:57.214Z,12.50
2022-07-27T00:46:30.926Z,13.20
2022-07-27T00:49:03.557Z,12.00
2022-07-27T00:51:36.316Z,11.50
2022-07-27T00:54:08.971Z,12.10
2022-07-27T00:56:41.877Z,13.00
2022-07-27T00:59:16.610Z,12.30
2022-07-27T01:01:49.425Z,12.80
2022-07-27T01:04:22.006Z,12.10
2022-07-27T01:06:56.228Z,12.80
2022-07-27T01:09:46.504Z,13.70
2022-07-27T01:12:20.925Z,11.70
2022-07-27T01:14:55.471Z,15.90
2022-07-27T01:17:32.074Z,14.70
2022-07-27T01:20:05.776Z,13.80
2022-07-27T01:22:39.583Z,14.30
2022-07-27T01:25:12.792Z,14.80
2022-07-27T01:27:46.299Z,14.70
2022-07-27T01:30:30.784Z,13.10
2022-07-27T01:33:08.709Z,12.30
2022-07-27T01:35:42.770Z,13.50
2022-07-27T01:38:16.044Z,13.10
2022-07-27T01:40:51.015Z,14.40
2022-07-27T01:43:24.049Z,13.90
2022-07-27T01:45:56.871Z,13.00
2022-07-27T01:48:30.112Z,13.60
2022-07-27T01:51:02.906Z,13.00
2022-07-27T01:53:35.585Z,12.10
2022-07-27T01:56:14.394Z,11.90
2022-07-27T01:58:47.602Z,13.00
2022-07-27T02:01:20.247Z,13.40
2022-07-27T02:03:53.280Z,13.40
2022-07-27T02:06:25.974Z,12.50
2022-07-27T02:08:59.069Z,13.30
2022-07-27T02:11:49.429Z,11.70
2022-07-27T02:14:22.698Z,12.20
2022-07-27T02:16:55.618Z,11.80
2022-07-27T02:19:28.594Z,11.20
2022-07-27T02:22:01.300Z,11.60
2022-07-27T02:24:34.094Z,12.80
2022-07-27T02:27:06.864Z,13.10
2022-07-27T02:29:39.622Z,13.80
2022-07-27T02:32:16.805Z,11.90
2022-07-27T02:34:51.011Z,12.50
2022-07-27T02:37:23.667Z,12.00
2022-07-27T02:39:58.454Z,12.60
2022-07-27T02:42:40.174Z,13.30
2022-07-27T02:45:17.332Z,12.40
2022-07-27T02:47:52.540Z,13.60
2022-07-27T02:50:25.916Z,14.10
2022-07-27T02:53:02.326Z,13.20
2022-07-27T02:55:50.066Z,12.00
2022-07-27T02:58:24.576Z,14.30
2022-07-27T03:00:59.077Z,13.80
2022-07-27T03:03:35.916Z,14.20
2022-07-27T03:06:12.034Z,12.80
2022-07-27T03:08:45.401Z,14.50
2022-07-27T03:11:19.519Z,13.40
2022-07-27T03:13:56.049Z,13.80
2022-07-27T03:16:28.957Z,15.20
2022-07-27T03:19:04.985Z,14.50
2022-07-27T03:21:38.113Z,15.00
2022-07-27T03:24:11.414Z,14.60
2022-07-27T03:26:47.082Z,14.90
2022-07-27T03:29:19.878Z,12.90
2022-07-27T03:31:52.926Z,12.50
2022-07-27T03:34:26.469Z,13.00
2022-07-27T03:36:59.680Z,12.50
2022-07-27T03:39:35.407Z,14.40
2022-07-27T03:42:09.069Z,14.70
2022-07-27T03:44:42.217Z,15.30
2022-07-27T03:47:19.093Z,15.10
2022-07-27T03:49:53.611Z,13.10
2022-07-27T03:52:29.990Z,12.60
2022-07-27T03:55:05.713Z,13.70
2022-07-27T03:57:41.548Z,12.70
2022-07-27T04:00:23.440Z,13.50
2022-07-27T04:02:56.322Z,14.90
2022-07-27T04:05:32.182Z,15.70
2022-07-27T04:08:08.359Z,14.30
2022-07-27T04:10:43.024Z,13.30
2022-07-27T04:13:23.012Z,15.60
2022-07-27T04:15:58.203Z,15.70
2022-07-27T04:18:31.131Z,15.50
2022-07-27T04:21:06.885Z,14.40
2022-07-27T04:23:41.253Z,14.50
2022-07-27T04:26:13.878Z,15.50
2022-07-27T04:28:47.375Z,13.00
2022-07-27T04:31:19.925Z,14.20
2022-07-27T04:33:54.303Z,13.20
2022-07-27T04:36:28.036Z,13.70
2022-07-27T04:39:03.262Z,13.30
2022-07-27T04:41:37.721Z,13.40
2022-07-27T04:44:12.664Z,13.70
2022-07-27T04:46:46.271Z,13.30
2022-07-27T04:49:21.534Z,13.80
2022-07-27T04:51:55.881Z,14.30
2022-07-27T04:54:30.076Z,13.20
2022-07-27T04:57:03.260Z,12.60
2022-07-27T04:59:37.461Z,15.80
2022-07-27T05:02:14.314Z,16.30
2022-07-27T05:04:46.841Z,17.20
2022-07-27T05:07:25.216Z,14.60
2022-07-27T05:09:57.993Z,14.30
2022-07-27T05:12:31.037Z,15.20
2022-07-27T05:15:04.016Z,13.60
2022-07-27T05:17:40.378Z,14.10
2022-07-27T05:20:16.326Z,14.60
2022-07-27T05:22:52.981Z,15.30
2022-07-27T05:25:26.198Z,13.90
2022-07-27T05:27:58.890Z,14.10
2022-07-27T05:30:31.923Z,15.70
2022-07-27T05:33:11.326Z,15.00
2022-07-27T05:35:44.290Z,13.30
2022-07-27T05:38:18.121Z,15.20
2022-07-27T05:40:51.376Z,15.30
2022-07-27T05:43:26.485Z,15.70
2022-07-27T05:46:02.124Z,15.20
2022-07-27T05:48:35.534Z,14.40
2022-07-27T05:51:09.303Z,15.00
2022-07-27T05:53:43.154Z,14.30
2022-07-27T05:56:17.831Z,14.50
2022-07-27T05:58:51.382Z,14.70
2022-07-27T06:01:25.139Z,13.70
2022-07-27T06:04:02.236Z,14.40
2022-07-27T06:06:53.340Z,14.40
2022-07-27T06:09:25.717Z,14.20
2022-07-27T06:11:59.014Z,14.50
2022-07-27T06:14:37.847Z,14.60
2022-07-27T06:17:14.296Z,13.60
2022-07-27T06:19:47.264Z,13.90
2022-07-27T06:22:23.506Z,13.50
2022-07-27T06:24:56.544Z,13.40
2022-07-27T06:27:34.885Z,13.20
2022-07-27T06:30:20.577Z,14.00
2022-07-27T06:32:53.375Z,13.60
2022-07-27T06:35:26.229Z,14.30
2022-07-27T06:38:01.014Z,13.10
2022-07-27T06:40:36.899Z,13.70
2022-07-27T06:43:10.484Z,13.70
2022-07-27T06:45:44.327Z,13.80
2022-07-27T06:48:17.643Z,13.70
2022-07-27T06:50:52.422Z,13.30
2022-07-27T06:53:25.372Z,12.60
2022-07-27T06:56:00.124Z,12.80
2022-07-27T06:58:33.219Z,12.30
2022-07-27T07:01:06.688Z,12.50
2022-07-27T07:03:40.747Z,12.60
2022-07-27T07:06:13.372Z,12.10
2022-07-27T07:08:46.950Z,12.60
2022-07-27T07:11:19.803Z,13.00
2022-07-27T07:13:52.500Z,14.00
2022-07-27T07:16:26.097Z,13.60
2022-07-27T07:19:00.444Z,13.20
2022-07-27T07:21:32.929Z,13.30
2022-07-27T07:24:06.823Z,12.70
2022-07-27T07:26:42.308Z,12.80
2022-07-27T07:29:15.501Z,13.10
2022-07-27T07:31:48.702Z,12.50
2022-07-27T07:34:22.756Z,12.80
2022-07-27T07:36:56.051Z,12.30
2022-07-27T07:39:31.567Z,13.00
2022-07-27T07:42:04.576Z,12.40
2022-07-27T07:44:44.034Z,12.80
2022-07-27T07:47:16.856Z,12.50
2022-07-27T07:49:49.777Z,13.00
2022-07-27T07:52:24.704Z,12.30
2022-07-27T07:54:57.061Z,11.60
2022-07-27T07:57:31.003Z,11.20
2022-07-27T08:00:08.404Z,11.60
2022-07-27T08:02:53.135Z,12.80
2022-07-27T08:05:29.068Z,12.30
2022-07-27T08:08:02.254Z,12.60
2022-07-27T08:10:36.530Z,12.40
2022-07-27T08:13:24.910Z,12.20
2022-07-27T08:15:58.766Z,12.40
2022-07-27T08:18:34.649Z,12.40
2022-07-27T08:21:12.568Z,12.90
2022-07-27T08:23:50.517Z,11.70
2022-07-27T08:26:26.085Z,12.20
2022-07-27T08:29:13.100Z,11.40
2022-07-27T08:31:52.289Z,11.10
2022-07-27T08:34:26.744Z,12.10
2022-07-27T08:36:59.950Z,11.10
2022-07-27T08:42:31.884Z,10.90
2022-07-27T08:45:05.517Z,11.70
2022-07-27T08:47:40.920Z,11.20
2022-07-27T08:50:24.883Z,11.80
2022-07-27T08:53:04.422Z,11.30
2022-07-27T08:55:41.990Z,10.90
2022-07-27T09:00:50.044Z,11.10
2022-07-27T09:03:25.670Z,10.70
2022-07-27T09:05:59.166Z,10.10
2022-07-27T09:08:37.363Z,11.30
2022-07-27T09:11:17.659Z,11.20
2022-07-27T09:13:52.785Z,12.00
2022-07-27T09:17:14.981Z,10.80
2022-07-27T09:19:26.651Z,11.40
2022-07-27T09:22:01.309Z,10.00
2022-07-27T09:24:46.726Z,10.20
2022-07-27T09:27:35.935Z,10.80
2022-07-27T09:30:14.319Z,10.70
2022-07-27T09:33:03.400Z,9.20
2022-07-27T09:35:39.222Z,9.80
2022-07-27T09:38:24.809Z,10.60
2022-07-27T09:41:04.456Z,11.10
2022-07-27T09:44:29.853Z,9.60
2022-07-27T09:46:46.874Z,9.50
2022-07-27T09:49:36.011Z,9.10
2022-07-27T09:52:10.343Z,8.90
2022-07-27T09:54:50.048Z,9.30
2022-07-27T09:57:23.053Z,9.30
2022-07-27T10:00:14.992Z,8.50
2022-07-27T10:02:53.619Z,8.90
2022-07-27T10:05:31.819Z,7.60
2022-07-27T10:08:04.498Z,7.90
2022-07-27T10:10:37.682Z,8.20
2022-07-27T10:13:12.464Z,8.10
2022-07-27T10:15:48.874Z,7.80
2022-07-27T10:18:29.227Z,7.10
2022-07-27T10:21:09.106Z,7.80
2022-07-27T10:23:55.066Z,7.90
2022-07-27T10:26:35.017Z,7.60
2022-07-27T10:29:18.312Z,7.50
2022-07-27T10:32:02.088Z,7.40
2022-07-27T10:34:50.905Z,7.90
2022-07-27T10:37:28.262Z,7.30
2022-07-27T10:40:19.869Z,7.40
2022-07-27T10:42:54.711Z,7.80
2022-07-27T10:46:00.354Z,8.10
2022-07-27T10:48:48.307Z,8.50
2022-07-27T10:51:37.918Z,8.10
2022-07-27T10:54:23.731Z,8.70
2022-07-27T10:56:59.264Z,8.90
2022-07-27T11:00:10.160Z,8.70
2022-07-27T11:02:46.602Z,8.80
2022-07-27T11:05:58.597Z,8.60
2022-07-27T11:08:36.099Z,8.40
2022-07-27T11:11:07.780Z,8.70
2022-07-27T11:13:40.300Z,8.60
2022-07-27T11:16:24.327Z,9.00
2022-07-27T11:19:01.996Z,8.70
2022-07-27T11:21:37.455Z,8.60
2022-07-27T11:24:17.687Z,8.80
2022-07-27T11:26:52.314Z,9.00
2022-07-27T11:29:26.205Z,8.40
2022-07-27T11:32:01.205Z,8.20
2022-07-27T11:34:37.296Z,8.80
2022-07-27T11:37:19.716Z,8.40
2022-07-27T11:40:03.297Z,8.80
2022-07-27T11:42:47.179Z,8.50
2022-07-27T11:45:33.432Z,7.80
2022-07-27T11:48:10.045Z,8.30
2022-07-27T11:50:59.853Z,8.60
2022-07-27T11:53:32.958Z,8.80
2022-07-27T11:56:08.101Z,8.20
2022-07-27T11:59:04.916Z,8.10
2022-07-27T12:01:39.080Z,7.80
2022-07-27T12:04:22.656Z,8.20
2022-07-27T12:07:08.388Z,8.20
2022-07-27T12:09:44.636Z,8.50
2022-07-27T12:12:19.382Z,8.60
2022-07-27T12:14:54.612Z,8.20
2022-07-27T12:17:35.256Z,9.00
2022-07-27T12:20:10.834Z,8.40
2022-07-27T12:22:46.869Z,8.60
2022-07-27T12:25:33.299Z,8.60
2022-07-27T12:28:17.429Z,7.90
2022-07-27T12:30:54.780Z,8.50
2022-07-27T12:33:33.014Z,8.70
2022-07-27T12:36:08.354Z,8.70
2022-07-27T12:38:46.393Z,8.10
2022-07-27T12:41:30.907Z,8.80
2022-07-27T12:44:12.288Z,8.60
2022-07-27T12:47:01.796Z,8.40
2022-07-27T12:49:36.593Z,9.40
2022-07-27T12:52:11.431Z,8.20
2022-07-27T12:54:44.242Z,9.20
2022-07-27T12:57:28.697Z,8.80
2022-07-27T13:00:15.665Z,8.90
2022-07-27T13:02:48.741Z,9.00
2022-07-27T13:05:22.094Z,8.20
2022-07-27T13:07:55.329Z,8.80
2022-07-27T13:10:30.562Z,9.00
2022-07-27T13:13:08.852Z,8.50
2022-07-27T13:15:41.220Z,8.60
2022-07-27T13:18:13.784Z,8.00
2022-07-27T13:20:48.683Z,8.20
2022-07-27T13:23:21.773Z,7.40
2022-07-27T13:25:54.555Z,7.10
2022-07-27T13:28:30.623Z,7.50
2022-07-27T13:31:03.408Z,6.90
2022-07-27T13:33:38.510Z,6.90
2022-07-27T13:36:13.834Z,7.00
2022-07-27T13:38:46.711Z,7.70
2022-07-27T13:41:19.547Z,6.40
2022-07-27T13:43:52.379Z,6.60
2022-07-27T13:46:25.095Z,6.40
2022-07-27T13:48:59.240Z,6.60
2022-07-27T13:51:34.542Z,6.60
2022-07-27T13:54:07.380Z,6.30
2022-07-27T13:56:42.068Z,6.10
2022-07-27T13:59:15.287Z,6.50
2022-07-27T14:01:52.727Z,6.60
2022-07-27T14:04:29.448Z,5.80
2022-07-27T14:07:08.056Z,6.10
2022-07-27T14:09:58.142Z,5.40
2022-07-27T14:12:30.988Z,5.60
2022-07-27T14:15:10.351Z,6.10
2022-07-27T14:17:45.522Z,6.30
2022-07-27T14:20:18.472Z,6.20
2022-07-27T14:22:51.312Z,6.00
2022-07-27T14:25:26.545Z,5.60
2022-07-27T14:28:01.318Z,5.90
2022-07-27T14:30:33.694Z,5.90
2022-07-27T14:33:06.189Z,6.10
2022-07-27T14:35:40.957Z,6.00
2022-07-27T14:38:14.457Z,6.10
2022-07-27T14:41:02.439Z,5.30
2022-07-27T14:43:34.963Z,5.00
2022-07-27T14:46:07.536Z,4.50
2022-07-27T14:49:05.023Z,4.70
2022-07-27T14:51:32.377Z,3.90
2022-07-27T14:54:07.221Z,4.50
2022-07-27T14:56:39.628Z,4.60
2022-07-27T14:59:12.308Z,4.30
2022-07-27T15:01:45.535Z,4.60
2022-07-27T15:04:18.085Z,4.60
2022-07-27T15:06:51.316Z,4.70
2022-07-27T15:09:27.243Z,5.00
2022-07-27T15:12:00.479Z,4.70
2022-07-27T15:14:32.897Z,4.60
2022-07-27T15:17:08.135Z,4.60
2022-07-27T15:19:40.886Z,4.80
2022-07-27T15:22:17.341Z,5.20
2022-07-27T15:24:54.096Z,5.00
2022-07-27T15:27:26.670Z,4.50
2022-07-27T15:29:59.158Z,5.00
2022-07-27T15:32:32.178Z,5.20
2022-07-27T15:35:07.165Z,4.90
2022-07-27T15:37:39.562Z,4.90
2022-07-27T15:40:31.264Z,5.60
2022-07-27T15:43:03.787Z,6.00
2022-07-27T15:45:38.901Z,5.80
2022-07-27T15:48:19.662Z,6.20
2022-07-27T15:50:54.841Z,6.30
2022-07-27T15:53:28.880Z,6.10
2022-07-27T15:56:03.904Z,5.80
2022-07-27T15:58:36.353Z,6.20
2022-07-27T16:01:12.199Z,6.30
2022-07-27T16:03:45.142Z,6.20
2022-07-27T16:06:21.123Z,6.20
2022-07-27T16:08:54.286Z,6.80
2022-07-27T16:11:26.661Z,6.40
2022-07-27T16:13:59.164Z,6.00
2022-07-27T16:16:34.084Z,6.40
2022-07-27T16:19:12.831Z,6.20
2022-07-27T16:21:53.800Z,5.80
2022-07-27T16:24:28.815Z,5.60
2022-07-27T16:27:05.481Z,5.70
2022-07-27T16:29:38.581Z,5.70
2022-07-27T16:32:12.441Z,5.70
2022-07-27T16:34:47.480Z,5.40
2022-07-27T16:37:20.049Z,5.50
2022-07-27T16:39:54.033Z,6.20
2022-07-27T16:42:28.989Z,5.90
2022-07-27T16:45:01.560Z,5.70
2022-07-27T16:47:34.108Z,6.20
2022-07-27T16:50:08.907Z,5.50
2022-07-27T16:52:46.808Z,6.40
2022-07-27T16:55:22.637Z,6.10
2022-07-27T16:58:03.479Z,6.10
2022-07-27T17:00:38.788Z,5.50
2022-07-27T17:03:13.160Z,5.70
2022-07-27T17:05:45.478Z,5.60
2022-07-27T17:08:18.328Z,5.70
2022-07-27T17:10:51.320Z,5.60
2022-07-27T17:13:23.878Z,5.90
2022-07-27T17:16:13.592Z,6.00
2022-07-27T17:18:46.291Z,5.80
2022-07-27T17:21:24.999Z,6.70
2022-07-27T17:23:57.393Z,5.80
2022-07-27T17:26:33.187Z,5.90
2022-07-27T17:29:06.472Z,5.70
2022-07-27T17:31:39.302Z,5.70
2022-07-27T17:34:11.824Z,5.40
2022-07-27T17:36:44.212Z,6.00
2022-07-27T17:39:17.356Z,5.40
2022-07-27T17:41:53.124Z,6.20
2022-07-27T17:44:26.871Z,5.50
2022-07-27T17:47:01.224Z,5.80
2022-07-27T17:49:33.908Z,5.40
2022-07-27T17:52:08.558Z,5.30
2022-07-27T17:54:41.411Z,5.80
2022-07-27T17:57:13.921Z,5.20
2022-07-27T17:59:46.656Z,5.30
2022-07-27T18:02:19.873Z,5.60
2022-07-27T18:04:52.536Z,5.60
2022-07-27T18:07:25.015Z,6.00
2022-07-27T18:09:58.522Z,5.60
2022-07-27T18:12:31.080Z,6.00
2022-07-27T18:15:20.905Z,5.40
2022-07-27T18:17:53.542Z,5.90
2022-07-27T18:20:27.624Z,6.40
2022-07-27T18:23:10.651Z,6.20
2022-07-27T18:26:07.297Z,6.00
2022-07-27T18:28:54.707Z,6.10
2022-07-27T18:31:27.267Z,6.20
2022-07-27T18:34:02.526Z,6.50
2022-07-27T18:37:18.795Z,5.50
2022-07-27T18:40:18.603Z,6.30
2022-07-27T18:42:53.046Z,6.50
2022-07-27T18:45:34.185Z,6.50
2022-07-27T18:48:11.757Z,6.40
2022-07-27T18:50:44.402Z,6.30
2022-07-27T18:53:16.882Z,7.20
2022-07-27T18:55:54.044Z,7.10
2022-07-27T18:58:29.024Z,6.70
2022-07-27T19:01:01.846Z,6.70
2022-07-27T19:03:34.485Z,7.00
2022-07-27T19:06:06.970Z,6.90
2022-07-27T19:08:41.638Z,7.10
2022-07-27T19:11:15.245Z,6.70
2022-07-27T19:13:55.053Z,7.00
2022-07-27T19:16:27.829Z,7.20
2022-07-27T19:19:00.167Z,6.70
2022-07-27T19:21:32.774Z,7.40
2022-07-27T19:24:05.558Z,6.80
2022-07-27T19:26:39.714Z,7.30
2022-07-27T19:29:17.394Z,7.40
2022-07-27T19:31:50.311Z,7.10
2022-07-27T19:34:22.957Z,7.00
2022-07-27T19:36:55.510Z,7.20
2022-07-27T19:39:27.858Z,7.70
2022-07-27T19:42:21.797Z,7.10
2022-07-27T19:45:01.839Z,7.20
2022-07-27T19:47:42.123Z,7.70
2022-07-27T19:50:14.811Z,7.20
2022-07-27T19:52:47.465Z,7.70
2022-07-27T19:55:19.843Z,7.30
2022-07-27T19:57:52.442Z,6.90
2022-07-27T20:00:28.092Z,6.90
2022-07-27T20:03:04.317Z,6.90
2022-07-27T20:05:39.823Z,7.10
2022-07-27T20:08:12.636Z,6.90
2022-07-27T20:10:47.853Z,6.80
2022-07-27T20:13:21.280Z,7.70
2022-07-27T20:15:54.254Z,6.80
2022-07-27T20:18:27.732Z,6.90
2022-07-27T20:21:00.448Z,6.90
2022-07-27T20:23:33.063Z,6.70
2022-07-27T20:26:05.402Z,6.60
2022-07-27T20:29:04.739Z,6.70
2022-07-27T20:31:38.771Z,6.80
2022-07-27T20:34:12.769Z,7.50
2022-07-27T20:36:45.264Z,7.40
2022-07-27T20:39:17.985Z,7.30
2022-07-27T20:41:53.550Z,6.90
2022-07-27T20:44:28.581Z,7.30
2022-07-27T20:47:01.311Z,7.30
2022-07-27T20:49:34.560Z,7.50
2022-07-27T20:52:08.850Z,8.30
2022-07-27T20:54:43.503Z,7.80
2022-07-27T20:57:16.024Z,8.00
2022-07-27T20:59:51.082Z,7.80
2022-07-27T21:02:26.109Z,8.40
2022-07-27T21:05:01.143Z,8.40
2022-07-27T21:07:33.474Z,8.00
2022-07-27T21:10:07.012Z,8.80
2022-07-27T21:12:39.384Z,8.70
2022-07-27T21:15:13.803Z,8.40
2022-07-27T21:17:48.558Z,8.30
2022-07-27T21:20:21.209Z,8.40
2022-07-27T21:23:10.729Z,8.00
2022-07-27T21:25:47.487Z,8.60
2022-07-27T21:28:20.038Z,8.30
2022-07-27T21:33:29.920Z,8.20
2022-07-27T21:36:04.883Z,8.40
2022-07-27T21:38:39.773Z,7.80
2022-07-27T21:41:17.871Z,8.10
2022-07-27T21:43:52.483Z,7.70
2022-07-27T21:46:25.035Z,7.60
2022-07-27T21:49:00.693Z,7.50
2022-07-27T21:51:33.412Z,7.60
2022-07-27T21:54:05.928Z,7.80
2022-07-27T21:56:50.550Z,7.90
2022-07-27T21:59:23.522Z,7.40
2022-07-27T22:05:42.229Z,6.80
2022-07-27T22:08:15.132Z,7.10
2022-07-27T22:10:49.187Z,6.30
2022-07-27T22:13:21.827Z,6.20
2022-07-27T22:16:12.888Z,6.60
2022-07-27T22:19:00.770Z,5.90
2022-07-27T22:21:36.566Z,6.20
2022-07-27T22:24:11.378Z,7.10
2022-07-27T22:26:46.031Z,7.00
2022-07-27T22:29:19.387Z,6.80
2022-07-27T22:31:52.880Z,6.30
2022-07-27T22:34:26.582Z,6.00
2022-07-27T22:36:58.967Z,6.60
2022-07-27T22:39:33.063Z,6.60
2022-07-27T22:42:05.657Z,7.00
2022-07-27T22:44:38.796Z,6.90
2022-07-27T22:47:12.397Z,6.70
2022-07-27T22:49:46.621Z,6.50
2022-07-27T22:52:18.997Z,6.70
2022-07-27T22:54:51.506Z,6.60
2022-07-27T22:57:26.730Z,7.20
2022-07-27T22:59:59.522Z,7.50
2022-07-27T23:02:34.809Z,7.70
2022-07-27T23:05:18.990Z,6.80
2022-07-27T23:07:51.769Z,7.80
2022-07-27T23:10:42.340Z,7.00
2022-07-27T23:13:20.287Z,7.30
2022-07-27T23:15:55.519Z,7.60
2022-07-27T23:18:37.804Z,7.50
2022-07-27T23:21:10.554Z,7.20
2022-07-27T23:23:45.682Z,7.50
2022-07-27T23:26:27.637Z,7.40
2022-07-27T23:29:00.033Z,7.60
2022-07-27T23:31:33.623Z,7.30
2022-07-27T23:34:06.056Z,7.40
2022-07-27T23:36:38.770Z,7.30
2022-07-27T23:39:13.960Z,8.30
2022-07-27T23:41:50.145Z,7.20
2022-07-27T23:44:22.838Z,7.20
2022-07-27T23:46:58.245Z,7.90
2022-07-27T23:49:30.918Z,7.60
2022-07-27T23:52:05.344Z,7.60
2022-07-27T23:54:38.104Z,7.70
2022-07-27T23:57:10.622Z,7.80
2022-07-27T23:59:43.131Z,7.60
